Time;durP1;ratioP1;P1;durP2;ratioP2;P2;SDS_P1;SDS_P2;PMS_P1;PMS_P2;Temp;Humidity;BMP_temperature;BMP_pressure;BME280_temperature;BME280_humidity;BME280_pressure;Samples;Min_cycle;Max_cycle;Signal;HPM_P1;HPM_P2
2022/08/27 00:01:53;;;;;;;;;2.00;2.00;;;;;22.38;85.81;101400.94;5057717;28;59141;-75
2022/08/27 00:04:18;;;;;;;;;4.33;3.00;;;;;22.37;86.00;101391.13;5057421;28;66136;-74
2022/08/27 00:06:43;;;;;;;;;2.00;2.00;;;;;22.33;86.34;101389.44;5056306;28;64344;-77
2022/08/27 00:09:09;;;;;;;;;2.00;2.00;;;;;22.32;86.50;101395.75;5057466;28;59658;-73
2022/08/27 00:11:34;;;;;;;;;3.00;3.00;;;;;22.29;86.33;101389.56;5057132;28;62713;-73
2022/08/27 00:14:00;;;;;;;;;3.00;3.00;;;;;22.28;86.53;101391.38;5056564;28;65448;-74
2022/08/27 00:16:26;;;;;;;;;2.00;2.00;;;;;22.23;87.02;101380.75;5057953;28;45385;-73
2022/08/27 00:18:53;;;;;;;;;2.00;2.00;;;;;22.21;87.21;101384.38;5057001;28;45449;-75
2022/08/27 00:21:18;;;;;;;;;3.00;3.00;;;;;22.25;87.13;101390.56;5057879;28;45291;-74
2022/08/27 00:23:43;;;;;;;;;2.00;2.00;;;;;22.18;87.07;101379.97;5056626;28;63199;-74
2022/08/27 00:26:09;;;;;;;;;3.33;2.33;;;;;22.22;87.74;101389.75;5057674;28;45399;-72
2022/08/27 00:28:35;;;;;;;;;2.00;2.00;;;;;22.14;87.93;101383.69;5057916;28;45341;-74
2022/08/27 00:31:01;;;;;;;;;3.00;3.00;;;;;22.15;87.43;101387.25;5057940;28;45550;-75
2022/08/27 00:33:26;;;;;;;;;3.67;2.00;;;;;22.11;87.80;101377.53;5057395;28;57012;-75
2022/08/27 00:35:52;;;;;;;;;5.00;2.33;;;;;22.08;88.08;101389.19;5057618;28;45317;-73
2022/08/27 00:38:19;;;;;;;;;2.00;2.00;;;;;22.06;88.50;101380.31;5057535;28;45273;-75
2022/08/27 00:40:45;;;;;;;;;5.00;2.00;;;;;22.03;88.37;101385.75;5039274;28;45619;-73
2022/08/27 00:43:10;;;;;;;;;2.33;2.33;;;;;22.04;88.62;101397.38;5057338;28;45623;-75
2022/08/27 00:45:42;;;;;;;;;3.00;3.00;;;;;21.98;88.96;101393.06;5057542;28;45368;-76
2022/08/27 00:48:10;;;;;;;;;2.00;2.00;;;;;21.96;89.05;101395.81;5045570;28;45211;-73
2022/08/27 00:50:39;;;;;;;;;4.00;2.00;;;;;21.95;89.32;101393.16;5039508;28;45528;-73
2022/08/27 00:53:09;;;;;;;;;3.00;3.00;;;;;21.93;89.97;101395.88;5057191;28;46825;-74
2022/08/27 00:55:43;;;;;;;;;2.00;2.00;;;;;21.92;89.56;101391.44;5057050;28;45314;-74
2022/08/27 00:58:20;;;;;;;;;3.67;3.00;;;;;21.92;89.50;101391.44;5039827;28;45506;-76
2022/08/27 01:00:46;;;;;;;;;2.00;2.00;;;;;21.86;89.85;101385.34;5039514;28;45310;-73
2022/08/27 01:03:12;;;;;;;;;4.00;2.33;;;;;21.88;90.05;101392.44;5057068;28;46040;-75
2022/08/27 01:05:38;;;;;;;;;4.33;3.00;;;;;21.82;90.21;101376.47;5057531;28;45333;-74
2022/08/27 01:08:13;;;;;;;;;2.00;2.00;;;;;21.80;90.48;101378.31;5056834;28;45299;-75
2022/08/27 01:10:39;;;;;;;;;2.33;2.00;;;;;21.82;90.54;101392.59;5039627;28;45357;-74
2022/08/27 01:13:10;;;;;;;;;3.67;3.00;;;;;21.76;90.93;101387.38;5038549;28;46423;-76
2022/08/27 01:15:35;;;;;;;;;2.00;2.00;;;;;21.76;91.29;101398.13;5038520;28;45402;-74
2022/08/27 01:18:04;;;;;;;;;2.00;2.00;;;;;21.74;91.34;101388.38;5056649;28;45453;-76
2022/08/27 01:20:41;;;;;;;;;6.67;2.00;;;;;21.79;92.14;101398.06;5057052;28;46090;-76
2022/08/27 01:23:17;;;;;;;;;3.00;2.33;;;;;21.80;91.73;101390.88;5037977;28;47423;-76
2022/08/27 01:25:43;;;;;;;;;2.33;2.33;;;;;21.81;91.95;101398.91;5038823;28;45386;-74
2022/08/27 01:28:10;;;;;;;;;3.00;3.00;;;;;21.78;92.14;101387.34;5039438;28;45415;-73
2022/08/27 01:30:36;;;;;;;;;4.33;3.00;;;;;21.82;92.11;101380.97;5039393;28;45349;-74
2022/08/27 01:33:10;;;;;;;;;2.00;2.00;;;;;21.84;92.04;101376.41;5056975;28;45534;-74
2022/08/27 01:35:36;;;;;;;;;2.00;2.00;;;;;21.79;92.01;101379.25;5056154;28;45483;-73
2022/08/27 01:38:02;;;;;;;;;2.00;2.00;;;;;21.80;92.19;101378.31;5056308;28;62408;-73
2022/08/27 01:40:27;;;;;;;;;3.00;3.00;;;;;21.80;92.34;101381.00;5056261;28;59583;-74
2022/08/27 01:42:54;;;;;;;;;2.67;2.67;;;;;21.81;92.52;101377.38;5056664;28;45570;-73
2022/08/27 01:45:25;;;;;;;;;2.67;2.67;;;;;21.76;92.39;101376.63;5038153;28;45468;-73
2022/08/27 01:47:51;;;;;;;;;2.67;2.67;;;;;21.74;92.54;101373.13;5056675;28;45325;-74
2022/08/27 01:50:19;;;;;;;;;5.00;2.00;;;;;21.75;92.34;101372.19;5056006;28;45296;-73
2022/08/27 01:52:45;;;;;;;;;2.67;2.67;;;;;21.70;92.81;101366.94;5056190;28;46224;-74
2022/08/27 01:55:13;;;;;;;;;2.00;2.00;;;;;21.65;92.57;101363.47;5056435;28;45287;-75
2022/08/27 01:57:39;;;;;;;;;4.33;2.67;;;;;21.71;92.70;101382.13;5038191;28;45553;-74
2022/08/27 02:00:09;;;;;;;;;3.00;3.00;;;;;21.71;93.39;101381.25;5056685;28;45320;-76
2022/08/27 02:02:35;;;;;;;;;4.00;2.00;;;;;21.70;92.90;101383.06;5056311;28;45385;-74
2022/08/27 02:05:00;;;;;;;;;2.00;2.00;;;;;21.68;93.26;101368.78;5055307;28;64958;-74
2022/08/27 02:07:26;;;;;;;;;2.67;2.67;;;;;21.64;93.12;101372.47;5038533;28;45200;-74
2022/08/27 02:09:51;;;;;;;;;4.00;2.00;;;;;21.66;93.12;101375.09;5055466;28;62109;-74
2022/08/27 02:12:16;;;;;;;;;2.67;2.67;;;;;21.65;93.56;101376.03;5055871;28;45436;-75
2022/08/27 02:14:42;;;;;;;;;4.00;3.00;;;;;21.65;93.78;101363.47;5044685;28;62281;-76
2022/08/27 02:17:07;;;;;;;;;5.00;3.00;;;;;21.67;93.51;101375.06;5057286;28;45790;-74
2022/08/27 02:19:32;;;;;;;;;4.67;2.00;;;;;21.71;93.93;101373.19;5055804;28;61360;-73
2022/08/27 02:21:59;;;;;;;;;4.00;2.00;;;;;21.67;93.63;101371.50;5056273;28;46346;-75
2022/08/27 02:24:27;;;;;;;;;5.00;3.00;;;;;21.68;93.93;101367.91;5054726;28;45466;-74
2022/08/27 02:26:54;;;;;;;;;2.33;2.33;;;;;21.72;93.47;101380.31;5056623;28;45373;-74
2022/08/27 02:29:19;;;;;;;;;2.00;2.00;;;;;21.73;93.36;101373.13;5038333;28;45156;-75
2022/08/27 02:31:45;;;;;;;;;2.67;2.00;;;;;21.71;94.03;101370.50;5056240;28;46691;-75
2022/08/27 02:34:10;;;;;;;;;2.33;2.00;;;;;21.77;93.37;101374.81;5054170;28;70369;-74
2022/08/27 02:36:36;;;;;;;;;2.00;2.00;;;;;21.79;93.30;101379.25;5055452;28;60534;-73
2022/08/27 02:39:03;;;;;;;;;3.00;3.00;;;;;21.79;93.74;101379.25;5054507;28;45236;-77
2022/08/27 02:41:28;;;;;;;;;2.00;2.00;;;;;21.82;93.57;101378.28;5055980;28;45835;-74
2022/08/27 02:43:54;;;;;;;;;2.00;2.00;;;;;21.82;93.53;101368.41;5055998;28;45665;-74
2022/08/27 02:46:19;;;;;;;;;2.00;2.00;;;;;21.84;93.51;101371.03;5055477;28;59971;-77
2022/08/27 02:48:44;;;;;;;;;2.33;2.33;;;;;21.80;93.44;101369.38;5055153;28;57346;-74
2022/08/27 02:51:09;;;;;;;;;2.00;2.00;;;;;21.83;93.15;101377.34;5055438;28;60184;-73
2022/08/27 02:53:36;;;;;;;;;4.00;3.00;;;;;21.82;93.18;101367.53;5054382;28;62325;-75
2022/08/27 02:56:02;;;;;;;;;3.33;2.33;;;;;21.80;93.51;101362.19;5037679;28;45338;-74
2022/08/27 02:58:28;;;;;;;;;3.00;3.00;;;;;21.79;93.54;101368.50;5039089;28;45413;-73
2022/08/27 03:00:53;;;;;;;;;3.00;3.00;;;;;21.73;93.77;101349.81;5055006;28;65888;-74
2022/08/27 03:03:19;;;;;;;;;3.33;3.33;;;;;21.74;93.46;101362.38;5057599;28;45214;-73
2022/08/27 03:05:44;;;;;;;;;3.00;2.00;;;;;21.72;93.46;101358.81;5058791;28;45404;-73
2022/08/27 03:08:10;;;;;;;;;4.00;2.00;;;;;21.68;93.48;101351.78;5058839;28;51440;-77
2022/08/27 03:10:35;;;;;;;;;3.00;3.00;;;;;21.65;93.74;101347.34;5059083;28;45780;-77
2022/08/27 03:13:01;;;;;;;;;3.00;3.00;;;;;21.60;93.84;101349.28;5057299;28;55374;-73
2022/08/27 03:15:26;;;;;;;;;1.67;1.67;;;;;21.54;93.85;101344.06;5048699;28;62365;-73
2022/08/27 03:20:43;;;;;;;;;3.00;3.00;;;;;21.44;94.25;101342.53;5058864;28;45487;-73
2022/08/27 03:23:09;;;;;;;;;2.33;2.33;;;;;21.40;94.31;101346.22;5057078;28;45462;-74
2022/08/27 03:25:35;;;;;;;;;4.00;3.00;;;;;21.40;94.70;101355.16;5058996;28;45314;-73
2022/08/27 03:28:01;;;;;;;;;3.00;3.00;;;;;21.35;94.54;101343.66;5059061;28;45368;-73
2022/08/27 03:30:26;;;;;;;;;3.33;3.00;;;;;21.34;94.97;101351.75;5058550;28;46355;-73
2022/08/27 03:32:52;;;;;;;;;2.00;2.00;;;;;21.26;94.94;101343.88;5058347;28;45191;-76
2022/08/27 03:35:18;;;;;;;;;4.33;3.00;;;;;21.25;95.40;101352.81;5058348;28;45470;-73
2022/08/27 03:37:44;;;;;;;;;2.67;2.33;;;;;21.21;95.84;101351.16;5059210;28;45458;-76
2022/08/27 03:40:10;;;;;;;;;5.00;3.00;;;;;21.19;95.70;101352.97;5057738;28;60534;-73
2022/08/27 03:42:36;;;;;;;;;3.67;3.67;;;;;21.14;95.89;101354.88;5058210;28;45330;-76
2022/08/27 03:45:01;;;;;;;;;2.67;2.33;;;;;21.07;95.90;101350.59;5058498;28;45324;-72
2022/08/27 03:47:27;;;;;;;;;4.00;4.00;;;;;21.05;96.46;101344.41;5059002;28;45393;-73
2022/08/27 03:49:52;;;;;;;;;2.33;2.33;;;;;21.00;96.54;101343.63;5057700;28;66260;-76
2022/08/27 03:52:18;;;;;;;;;3.33;3.33;;;;;20.98;96.89;101342.75;5057869;28;45401;-74
2022/08/27 03:54:44;;;;;;;;;3.00;3.00;;;;;20.95;96.75;101340.16;5039964;28;45441;-74
2022/08/27 03:57:10;;;;;;;;;3.67;3.00;;;;;20.93;97.05;101348.22;5040455;28;45449;-73
2022/08/27 03:59:35;;;;;;;;;4.67;3.00;;;;;20.92;96.96;101357.22;5057815;28;46160;-75
2022/08/27 04:02:01;;;;;;;;;5.33;4.00;;;;;20.88;97.28;101348.38;5058397;28;45234;-74
2022/08/27 04:04:26;;;;;;;;;4.00;2.67;;;;;20.84;97.80;101346.66;5058462;28;45462;-76
2022/08/27 04:06:52;;;;;;;;;4.00;4.00;;;;;20.77;98.23;101342.34;5058195;28;45448;-74
2022/08/27 04:09:17;;;;;;;;;3.00;3.00;;;;;20.79;97.80;101345.00;5048736;28;69034;-74
2022/08/27 04:11:42;;;;;;;;;3.00;3.00;;;;;20.78;98.33;101340.56;5049543;28;45262;-72
2022/08/27 04:14:08;;;;;;;;;3.67;3.67;;;;;20.76;98.58;101337.00;5044224;28;62152;-76
2022/08/27 04:16:34;;;;;;;;;4.33;3.00;;;;;20.73;98.34;101343.34;5049517;28;61458;-75
2022/08/27 04:19:00;;;;;;;;;5.00;3.00;;;;;20.65;98.88;101337.25;5035989;28;46587;-74
2022/08/27 04:21:26;;;;;;;;;3.33;3.33;;;;;20.65;98.89;101331.88;5035930;28;45419;-73
2022/08/27 04:23:51;;;;;;;;;3.00;3.00;;;;;20.62;99.37;101326.63;5052538;28;61106;-73
2022/08/27 04:26:17;;;;;;;;;5.33;3.67;;;;;20.63;99.71;101337.31;5058080;28;45311;-74
2022/08/27 04:28:42;;;;;;;;;3.67;3.67;;;;;20.62;99.64;101340.03;5057594;28;45813;-73
2022/08/27 04:31:08;;;;;;;;;3.67;2.00;;;;;20.60;99.58;101339.16;5057054;28;62155;-73
2022/08/27 04:33:33;;;;;;;;;2.33;2.33;;;;;20.57;100.00;101336.56;5053806;28;45423;-73
2022/08/27 04:36:05;;;;;;;;;5.67;3.00;;;;;20.55;100.00;101325.84;5022483;28;45597;-73
2022/08/27 04:38:30;;;;;;;;;4.00;3.00;;;;;20.52;100.00;101323.25;5057308;28;46272;-74
2022/08/27 04:43:40;;;;;;;;;4.00;4.00;;;;;20.56;100.00;101330.31;5057267;28;45444;-76
2022/08/27 04:46:05;;;;;;;;;4.33;3.00;;;;;20.54;100.00;101324.09;5036380;28;45547;-75
2022/08/27 04:48:31;;;;;;;;;3.67;3.67;;;;;20.56;100.00;101329.41;5053847;28;45650;-77
2022/08/27 04:50:56;;;;;;;;;3.67;3.67;;;;;20.52;100.00;101323.25;5055951;28;45409;-73
2022/08/27 04:53:22;;;;;;;;;5.00;3.00;;;;;20.50;100.00;101324.19;5037784;28;45501;-73
2022/08/27 04:55:50;;;;;;;;;4.00;3.00;;;;;20.48;100.00;101323.34;5047344;28;45340;-73
2022/08/27 04:58:16;;;;;;;;;6.33;4.00;;;;;20.45;100.00;101328.72;5056826;28;47532;-73
2022/08/27 05:00:43;;;;;;;;;4.33;3.00;;;;;20.44;100.00;101324.28;5056966;28;45219;-73
2022/08/27 05:03:09;;;;;;;;;5.00;3.33;;;;;20.37;100.00;101329.78;5057411;28;45444;-77
2022/08/27 05:05:34;;;;;;;;;6.00;5.00;;;;;20.34;100.00;101335.22;5057443;28;45467;-74
2022/08/27 05:07:59;;;;;;;;;4.00;3.00;;;;;20.35;100.00;101342.38;5057241;28;45262;-75
2022/08/27 05:10:25;;;;;;;;;4.33;3.00;;;;;20.23;100.00;101322.94;5061100;28;60051;-74
2022/08/27 05:12:50;;;;;;;;;5.33;4.00;;;;;20.27;100.00;101338.06;5056093;28;59428;-74
2022/08/27 05:15:15;;;;;;;;;4.33;3.33;;;;;20.29;100.00;101342.47;5056153;28;62513;-74
2022/08/27 05:17:42;;;;;;;;;2.67;2.67;;;;;20.24;100.00;101338.13;5055794;28;63104;-74
2022/08/27 05:20:09;;;;;;;;;4.67;4.67;;;;;20.24;100.00;101339.03;5056917;28;45327;-77
2022/08/27 05:22:34;;;;;;;;;5.33;2.33;;;;;20.26;100.00;101341.66;5056678;28;45437;-74
2022/08/27 05:25:00;;;;;;;;;5.33;4.33;;;;;20.28;100.00;101345.19;5056386;28;46164;-74
2022/08/27 05:27:25;;;;;;;;;5.33;3.33;;;;;20.30;100.00;101354.09;5055243;28;46612;-74
2022/08/27 05:29:50;;;;;;;;;4.33;4.00;;;;;20.35;100.00;101369.19;5056938;28;45203;-73
2022/08/27 05:32:17;;;;;;;;;5.33;4.33;;;;;20.36;100.00;101362.03;5039231;28;45274;-75
2022/08/27 05:34:42;;;;;;;;;3.67;3.67;;;;;20.38;100.00;101363.75;5056544;28;57483;-74
2022/08/27 05:37:08;;;;;;;;;4.00;4.00;;;;;20.34;100.00;101356.66;5055944;28;69416;-74
2022/08/27 05:39:34;;;;;;;;;4.33;4.33;;;;;20.34;100.00;101356.66;5057170;28;45417;-77
2022/08/27 05:41:59;;;;;;;;;4.00;4.00;;;;;20.37;100.00;101366.47;5056168;28;57220;-76
2022/08/27 05:44:24;;;;;;;;;5.00;3.33;;;;;20.34;100.00;101364.72;5057023;28;57450;-74
2022/08/27 05:46:50;;;;;;;;;5.33;4.00;;;;;20.37;100.00;101366.47;5056102;28;64920;-74
2022/08/27 05:49:15;;;;;;;;;4.00;4.00;;;;;20.34;100.00;101356.66;5056614;28;45306;-73
2022/08/27 05:51:40;;;;;;;;;7.67;4.00;;;;;20.35;100.00;101360.25;5049827;28;57687;-74
2022/08/27 05:54:13;;;;;;;;;6.00;4.67;;;;;20.35;100.00;101357.56;5053574;28;45272;-76
2022/08/27 05:56:40;;;;;;;;;4.33;4.33;;;;;20.34;100.00;101361.16;5053384;28;47508;-73
2022/08/27 06:01:50;;;;;;;;;5.33;4.00;;;;;20.35;100.00;101362.94;5056509;28;45398;-72
2022/08/27 06:04:17;;;;;;;;;4.33;3.00;;;;;20.31;100.00;101364.78;5049010;28;45622;-73
2022/08/27 06:06:43;;;;;;;;;4.00;4.00;;;;;20.24;100.00;101357.81;5048922;28;46616;-73
2022/08/27 06:09:10;;;;;;;;;7.00;4.00;;;;;20.26;100.00;101364.00;5061806;28;45806;-74
2022/08/27 06:11:36;;;;;;;;;3.67;3.67;;;;;20.25;100.00;101361.34;5055915;28;45524;-73
2022/08/27 06:14:02;;;;;;;;;4.67;4.67;;;;;20.23;100.00;101357.81;5052380;28;45494;-73
2022/08/27 06:16:27;;;;;;;;;3.00;3.00;;;;;20.21;100.00;101354.28;5054434;28;47525;-74
2022/08/27 06:18:56;;;;;;;;;6.00;5.67;;;;;20.25;100.00;101356.00;5055675;28;45444;-73
2022/08/27 06:21:21;;;;;;;;;7.67;5.00;;;;;20.24;100.00;101355.13;5055860;28;45326;-74
2022/08/27 06:23:46;;;;;;;;;7.00;5.00;;;;;20.27;100.00;101359.50;5056251;28;45350;-75
2022/08/27 06:26:17;;;;;;;;;6.00;5.00;;;;;20.28;100.00;101362.16;5055849;28;45635;-73
2022/08/27 06:28:43;;;;;;;;;7.67;5.00;;;;;20.31;100.00;101363.91;5056064;28;45342;-74
2022/08/27 06:31:21;;;;;;;;;6.67;4.00;;;;;20.30;100.00;101364.84;5055090;28;45726;-75
2022/08/27 06:33:47;;;;;;;;;5.00;5.00;;;;;20.34;100.00;101364.72;5056229;28;45223;-73
2022/08/27 06:36:17;;;;;;;;;5.67;5.67;;;;;20.36;100.00;101364.69;5056312;28;45465;-73
2022/08/27 06:38:42;;;;;;;;;5.33;4.33;;;;;20.46;100.00;101366.31;5059262;28;45542;-77
2022/08/27 06:41:09;;;;;;;;;4.33;4.33;;;;;20.48;100.00;101379.69;5041045;28;45522;-73
2022/08/27 06:43:37;;;;;;;;;5.00;3.67;;;;;20.47;100.00;101373.44;5059172;28;45362;-73
2022/08/27 06:46:04;;;;;;;;;6.33;4.33;;;;;20.49;100.00;101373.41;5058379;28;46162;-72
2022/08/27 06:48:29;;;;;;;;;7.00;5.67;;;;;20.56;100.00;101383.97;5056503;28;45286;-74
2022/08/27 06:50:55;;;;;;;;;3.00;3.00;;;;;20.56;100.00;101378.63;5056103;28;45602;-78
2022/08/27 06:53:20;;;;;;;;;6.67;5.00;;;;;20.61;100.00;101381.16;5057159;28;60281;-73
2022/08/27 06:55:47;;;;;;;;;6.00;6.00;;;;;20.64;100.00;101375.75;5058170;28;46052;-75
2022/08/27 06:58:13;;;;;;;;;6.00;4.67;;;;;20.64;100.00;101381.13;5058674;28;45484;-78
2022/08/27 07:00:39;;;;;;;;;7.00;5.33;;;;;20.66;100.00;101382.84;5059574;28;45349;-74
2022/08/27 07:03:05;;;;;;;;;9.00;5.33;;;;;20.75;100.00;101380.88;5057691;28;60432;-73
2022/08/27 07:05:33;;;;;;;;;6.00;6.00;;;;;20.76;100.00;101380.84;5058767;28;52575;-78
2022/08/27 07:07:59;;;;;;;;;6.00;6.00;;;;;20.83;100.00;101395.91;5033517;22;45626;-77
2022/08/27 07:10:25;;;;;;;;;5.67;5.67;;;;;20.79;100.00;101383.47;5001249;28;45457;-76
2022/08/27 07:12:50;;;;;;;;;5.00;5.00;;;;;20.89;100.00;101403.81;5001231;28;45519;-72
2022/08/27 07:15:16;;;;;;;;;6.00;6.00;;;;;20.90;100.00;101389.47;5017704;28;67312;-73
2022/08/27 07:17:43;;;;;;;;;8.33;6.00;;;;;20.98;100.00;101396.44;5017969;28;68294;-73
2022/08/27 07:20:10;;;;;;;;;6.67;5.00;;;;;21.01;100.00;101399.09;5018478;28;45488;-73
2022/08/27 07:22:35;;;;;;;;;7.00;7.00;;;;;21.04;100.00;101396.31;5000266;28;45971;-74
2022/08/27 07:25:00;;;;;;;;;6.67;6.00;;;;;21.08;100.00;101401.56;5018620;28;46053;-73
2022/08/27 07:27:26;;;;;;;;;7.00;7.00;;;;;21.13;100.00;101398.78;5014553;28;60293;-75
2022/08/27 07:29:51;;;;;;;;;5.33;5.33;;;;;21.15;100.00;101399.66;5013806;28;60847;-73
2022/08/27 07:32:17;;;;;;;;;5.00;5.00;;;;;21.18;100.00;101394.19;4998873;28;45261;-73
2022/08/27 07:34:42;;;;;;;;;8.67;6.67;;;;;21.17;100.00;101385.25;5015828;28;55739;-73
2022/08/27 07:37:08;;;;;;;;;7.00;6.00;;;;;21.25;100.00;101397.59;5015671;28;50668;-73
2022/08/27 07:39:33;;;;;;;;;5.67;5.67;;;;;21.32;100.00;101404.66;5018406;28;45409;-73
2022/08/27 07:44:42;;;;;;;;;7.33;6.33;;;;;21.36;100.00;101398.25;5019333;28;45820;-74
2022/08/27 07:47:08;;;;;;;;;10.33;8.00;;;;;21.39;100.00;101393.69;5011516;28;45505;-73
2022/08/27 07:49:34;;;;;;;;;9.00;7.33;;;;;21.42;100.00;101388.25;4999370;28;45413;-72
2022/08/27 07:52:00;;;;;;;;;9.00;7.33;;;;;21.48;100.00;101395.28;5000220;28;45435;-73
2022/08/27 07:54:26;;;;;;;;;9.33;8.00;;;;;21.55;100.00;101398.69;5000528;28;46761;-74
2022/08/27 07:56:52;;;;;;;;;6.67;6.00;;;;;21.58;100.00;101394.13;5017123;28;45419;-74
2022/08/27 07:59:18;;;;;;;;;7.67;7.00;;;;;21.68;100.00;101410.91;5007736;28;45501;-72
2022/08/27 08:01:43;;;;;;;;;8.33;7.00;;;;;21.71;100.00;101403.63;5017337;28;45359;-74
2022/08/27 08:04:09;;;;;;;;;9.67;8.00;;;;;21.73;100.00;101411.66;5017107;28;45706;-74
2022/08/27 08:06:37;;;;;;;;;6.33;6.00;;;;;21.80;100.00;101402.53;5016063;28;59447;-72
2022/08/27 08:09:02;;;;;;;;;8.67;7.33;;;;;21.81;100.00;101411.47;5037701;28;45412;-72
2022/08/27 08:11:27;;;;;;;;;7.67;6.33;;;;;21.88;100.00;101413.94;5036403;28;45452;-72
2022/08/27 08:13:53;;;;;;;;;6.00;5.00;;;;;21.92;100.00;101412.06;5035269;28;65270;-72
2022/08/27 08:16:19;;;;;;;;;6.00;6.00;;;;;21.93;100.00;101400.38;5037111;28;45426;-73
2022/08/27 08:18:45;;;;;;;;;9.33;9.33;;;;;22.04;100.00;101411.72;5036713;28;45811;-74
2022/08/27 08:21:13;;;;;;;;;8.67;7.00;;;;;22.06;100.00;101400.94;5035633;28;45552;-74
2022/08/27 08:23:39;;;;;;;;;6.33;6.33;;;;;22.14;100.00;101413.25;5037025;28;46546;-73
2022/08/27 08:26:05;;;;;;;;;6.33;5.00;;;;;22.18;100.00;101412.25;5037366;28;45301;-73
2022/08/27 08:28:31;;;;;;;;;6.00;5.00;;;;;22.23;100.00;101420.22;5037660;28;45451;-72
2022/08/27 08:30:57;;;;;;;;;8.00;5.00;;;;;22.24;100.00;101411.22;5037586;28;45607;-73
2022/08/27 08:33:23;;;;;;;;;6.00;5.00;;;;;22.29;100.00;101408.41;5037741;28;45523;-72
2022/08/27 08:35:48;;;;;;;;;9.67;5.33;;;;;22.35;99.24;101411.78;5037538;28;45525;-72
2022/08/27 08:38:18;;;;;;;;;5.00;5.00;;;;;22.32;99.01;101401.13;5037396;28;45318;-77
2022/08/27 08:40:48;;;;;;;;;6.67;5.00;;;;;22.44;98.29;101418.72;5037421;28;45448;-72
2022/08/27 08:43:39;;;;;;;;;7.00;4.67;;;;;22.47;97.77;101416.81;5033809;28;47552;-73
2022/08/27 08:46:37;;;;;;;;;6.00;5.00;;;;;22.51;97.05;101416.72;5023173;28;45386;-72
2022/08/27 08:49:22;;;;;;;;;5.33;4.67;;;;;22.49;96.07;101406.91;5031563;28;45297;-74
2022/08/27 08:51:47;;;;;;;;;4.00;4.00;;;;;22.55;94.84;101421.09;5027775;28;45485;-72
2022/08/27 08:54:17;;;;;;;;;6.33;6.00;;;;;22.52;95.06;101410.41;5035448;28;71881;-74
2022/08/27 08:56:55;;;;;;;;;4.67;4.67;;;;;22.55;94.90;101413.03;5037864;28;45370;-75
2022/08/27 08:59:38;;;;;;;;;7.00;5.00;;;;;22.58;95.08;101405.72;5020210;28;45279;-72
2022/08/27 09:02:05;;;;;;;;;4.33;4.33;;;;;22.64;95.08;101420.84;5037154;28;45356;-73
2022/08/27 09:04:30;;;;;;;;;5.67;4.67;;;;;22.64;93.56;101408.25;5019063;28;46448;-72
2022/08/27 09:07:09;;;;;;;;;9.00;4.00;;;;;22.69;92.73;101410.78;5019238;28;45380;-74
2022/08/27 09:09:44;;;;;;;;;6.67;5.67;;;;;22.73;92.40;101405.25;5019626;28;45382;-74
2022/08/27 09:12:14;;;;;;;;;5.00;3.33;;;;;22.76;90.58;101404.31;5035328;28;45385;-72
2022/08/27 09:14:41;;;;;;;;;4.00;4.00;;;;;22.80;89.58;101415.84;5036565;28;46373;-73
2022/08/27 09:17:07;;;;;;;;;6.00;4.00;;;;;22.83;89.98;101405.88;5018567;28;45396;-73
2022/08/27 09:19:33;;;;;;;;;4.00;4.00;;;;;22.84;88.66;101402.25;5036926;28;45148;-73
2022/08/27 09:22:05;;;;;;;;;6.67;5.00;;;;;22.90;89.17;101401.22;5036568;28;45566;-73
2022/08/27 09:25:00;;;;;;;;;6.00;4.00;;;;;22.97;89.20;101411.75;5018701;28;46297;-74
2022/08/27 09:27:26;;;;;;;;;6.00;5.00;;;;;23.05;89.12;101414.19;5018814;28;45547;-72
2022/08/27 09:29:54;;;;;;;;;4.00;4.00;;;;;23.11;88.75;101414.00;5035794;28;55545;-73
2022/08/27 09:32:33;;;;;;;;;6.33;5.33;;;;;23.18;88.57;101406.63;5019151;28;45241;-73
2022/08/27 09:35:02;;;;;;;;;6.00;4.00;;;;;23.20;87.16;101407.44;5036433;28;46506;-73
2022/08/27 09:37:30;;;;;;;;;3.00;3.00;;;;;23.26;85.87;101404.53;5036822;28;45414;-73
2022/08/27 09:40:30;;;;;;;;;7.33;5.00;;;;;23.35;85.65;101408.78;5036715;28;45306;-73
2022/08/27 09:43:08;;;;;;;;;11.67;8.00;;;;;23.35;85.25;101406.06;5018984;28;46030;-74
2022/08/27 09:45:34;;;;;;;;;6.67;5.33;;;;;23.37;85.50;101398.81;5018614;28;46589;-73
2022/08/27 09:48:20;;;;;;;;;6.00;4.33;;;;;23.41;84.20;101404.06;5036218;28;45367;-73
2022/08/27 09:50:51;;;;;;;;;6.67;5.00;;;;;23.45;82.04;101402.16;5041023;28;45195;-73
2022/08/27 09:53:24;;;;;;;;;5.67;4.33;;;;;23.52;80.53;101409.09;5018784;28;45447;-72
2022/08/27 09:56:01;;;;;;;;;8.00;5.33;;;;;23.55;81.96;101394.63;5018735;28;45861;-72
2022/08/27 09:58:31;;;;;;;;;5.00;5.00;;;;;23.60;82.20;101403.44;5036080;28;45378;-71
2022/08/27 10:01:17;;;;;;;;;4.00;4.00;;;;;23.68;81.96;101404.09;5018379;28;45301;-74
2022/08/27 10:03:42;;;;;;;;;4.00;4.00;;;;;23.73;81.19;101400.28;5036556;28;45500;-73
2022/08/27 10:06:08;;;;;;;;;6.67;5.00;;;;;23.82;80.84;101404.50;5018449;28;46286;-72
2022/08/27 10:08:44;;;;;;;;;6.00;5.00;;;;;23.89;80.87;101407.84;5036818;28;45401;-74
2022/08/27 10:11:15;;;;;;;;;3.67;3.67;;;;;23.94;80.32;101405.88;5036231;28;45501;-74
2022/08/27 10:13:49;;;;;;;;;5.00;3.33;;;;;23.99;78.95;101410.19;5021886;28;45561;-73
2022/08/27 10:16:30;;;;;;;;;3.33;3.00;;;;;24.05;79.86;101411.78;5039618;28;46365;-72
2022/08/27 10:19:29;;;;;;;;;4.33;3.33;;;;;24.13;79.46;101414.19;5039489;28;45394;-72
2022/08/27 10:22:12;;;;;;;;;5.00;4.33;;;;;24.17;79.40;101408.63;5038441;28;45378;-73
2022/08/27 10:24:53;;;;;;;;;3.00;3.00;;;;;24.21;77.92;101395.91;5039722;28;45380;-73
2022/08/27 10:27:43;;;;;;;;;4.00;4.00;;;;;24.23;76.26;101405.69;5039429;28;45660;-73
2022/08/27 10:30:15;;;;;;;;;4.67;4.67;;;;;24.23;75.75;101391.31;5039034;28;45475;-74
2022/08/27 10:32:49;;;;;;;;;6.33;4.00;;;;;24.29;76.13;101394.69;5022000;28;45561;-74
2022/08/27 10:35:18;;;;;;;;;4.00;4.00;;;;;24.31;74.73;101398.22;5039412;28;45386;-73
2022/08/27 10:37:46;;;;;;;;;4.00;4.00;;;;;24.36;74.93;101400.78;5039200;28;45669;-73
2022/08/27 10:40:17;;;;;;;;;5.00;5.00;;;;;24.38;72.53;101389.91;5039003;28;45285;-72
2022/08/27 10:43:04;;;;;;;;;5.33;4.00;;;;;24.41;73.48;101388.00;5021580;28;45402;-72
2022/08/27 10:45:58;;;;;;;;;5.00;3.33;;;;;24.49;73.23;101390.38;5039707;28;45318;-72
2022/08/27 10:48:32;;;;;;;;;4.00;3.00;;;;;24.52;70.82;101395.69;5039019;28;47443;-73
2022/08/27 10:51:18;;;;;;;;;5.00;5.00;;;;;24.53;70.11;101394.75;5029183;28;45615;-73
2022/08/27 10:54:04;;;;;;;;;3.33;3.00;;;;;24.56;70.28;101391.94;5027588;28;45318;-73
2022/08/27 10:56:35;;;;;;;;;4.67;3.67;;;;;24.59;69.99;101374.72;5037639;28;45568;-73
2022/08/27 10:59:15;;;;;;;;;7.00;4.00;;;;;24.69;70.41;101377.00;5021215;28;46814;-72
2022/08/27 11:01:49;;;;;;;;;7.00;4.67;;;;;24.75;69.55;101382.16;5039229;28;45447;-73
2022/08/27 11:04:24;;;;;;;;;3.67;3.67;;;;;24.77;69.72;101371.31;5039127;28;45536;-72
2022/08/27 11:06:57;;;;;;;;;5.00;5.00;;;;;24.87;68.66;101366.41;5021274;28;45497;-73
2022/08/27 11:09:53;;;;;;;;;7.00;4.00;;;;;24.92;70.78;101370.69;5020969;28;45311;-73
2022/08/27 11:12:29;;;;;;;;;5.67;5.67;;;;;24.97;68.61;101374.09;5020207;28;45228;-74
2022/08/27 11:14:59;;;;;;;;;7.33;6.00;;;;;24.99;68.82;101358.72;5021436;28;45336;-73
2022/08/27 11:17:38;;;;;;;;;4.33;4.33;;;;;25.03;68.12;101363.03;5021117;28;45437;-72
2022/08/27 11:20:21;;;;;;;;;7.00;5.00;;;;;25.07;68.61;101364.69;5032388;28;45739;-73
2022/08/27 11:22:51;;;;;;;;;6.00;5.33;;;;;25.11;68.82;101367.28;5037563;28;45508;-72
2022/08/27 11:25:49;;;;;;;;;5.00;4.00;;;;;25.14;67.41;101364.44;5020772;28;45262;-73
2022/08/27 11:28:17;;;;;;;;;5.00;4.33;;;;;25.14;67.71;101343.72;5038752;28;45419;-75
2022/08/27 11:31:02;;;;;;;;;4.00;4.00;;;;;25.18;67.77;101347.16;5020602;28;45915;-73
2022/08/27 11:33:27;;;;;;;;;5.33;4.00;;;;;25.24;67.51;101352.31;5020463;28;45433;-73
2022/08/27 11:36:08;;;;;;;;;5.67;5.67;;;;;25.31;67.05;101349.31;5037945;28;45338;-73
2022/08/27 11:38:53;;;;;;;;;4.00;4.00;;;;;25.32;66.41;101340.25;5038757;28;45607;-72
2022/08/27 11:41:51;;;;;;;;;5.00;4.00;;;;;25.44;65.16;101354.19;5038441;28;46742;-73